Time;durP1;ratioP1;P1;durP2;ratioP2;P2;SDS_P1;SDS_P2;PMS_P1;PMS_P2;Temp;Humidity;BMP_temperature;BMP_pressure;BME280_temperature;BME280_humidity;BME280_pressure;Samples;Min_cycle;Max_cycle;Signal;HPM_P1;HPM_P2
2022/08/27 00:00:12;;;;;;;7.25;1.30;;;15.90;99.90;;;;;;5096273;28;20529;-89
2022/08/27 00:02:38;;;;;;;2.70;1.00;;;16.00;99.90;;;;;;5091654;28;20116;-89
2022/08/27 00:05:04;;;;;;;4.47;1.10;;;16.00;99.90;;;;;;5074441;28;20039;-89
2022/08/27 00:07:30;;;;;;;7.30;1.08;;;16.00;99.90;;;;;;5091149;28;20040;-89
2022/08/27 00:09:56;;;;;;;4.40;1.08;;;16.10;99.90;;;;;;5089855;28;20077;-89
2022/08/27 00:12:21;;;;;;;3.05;1.02;;;16.10;99.90;;;;;;5090275;28;20070;-88
2022/08/27 00:14:47;;;;;;;5.55;1.13;;;16.10;99.90;;;;;;5089951;28;20333;-89
2022/08/27 00:17:13;;;;;;;7.88;1.10;;;16.50;99.90;;;;;;5089630;28;20035;-89
2022/08/27 00:19:40;;;;;;;2.33;0.80;;;16.20;99.90;;;;;;5089816;28;20047;-89
2022/08/27 00:22:07;;;;;;;5.70;1.20;;;16.30;99.90;;;;;;5072756;28;20047;-89
2022/08/27 00:24:34;;;;;;;6.60;0.82;;;16.30;99.90;;;;;;5073121;28;20044;-89
2022/08/27 00:27:00;;;;;;;3.17;0.77;;;16.90;99.90;;;;;;5089638;28;20631;-89
2022/08/27 00:29:26;;;;;;;3.47;1.08;;;16.50;99.90;;;;;;5107454;28;20372;-89
2022/08/27 00:31:52;;;;;;;3.80;0.88;;;16.30;99.90;;;;;;5106811;28;20043;-89
2022/08/27 00:34:18;;;;;;;5.30;0.90;;;16.30;99.90;;;;;;5106114;28;20508;-89
2022/08/27 00:36:44;;;;;;;3.42;0.90;;;16.30;99.90;;;;;;5106800;28;20039;-89
2022/08/27 00:39:10;;;;;;;3.45;0.90;;;16.30;99.90;;;;;;5072291;28;20074;-88
2022/08/27 00:41:38;;;;;;;6.82;1.25;;;16.20;99.90;;;;;;5089198;28;20474;-89
2022/08/27 00:44:05;;;;;;;3.92;1.08;;;16.20;99.90;;;;;;5088989;28;20046;-89
2022/08/27 00:47:00;;;;;;;5.28;1.13;;;16.20;99.90;;;;;;5090277;28;20413;-88
2022/08/27 00:49:37;;;;;;;1.63;0.90;;;16.30;99.90;;;;;;5089274;28;20070;-89
2022/08/27 00:52:09;;;;;;;2.63;1.00;;;16.20;99.90;;;;;;5109842;28;20036;-88
2022/08/27 00:54:35;;;;;;;8.60;1.05;;;16.10;99.90;;;;;;5093617;28;20052;-89
2022/08/27 00:57:02;;;;;;;2.67;1.00;;;16.10;99.90;;;;;;5109779;28;20046;-89
2022/08/27 00:59:29;;;;;;;4.20;0.98;;;16.10;99.90;;;;;;5093536;28;20043;-88
2022/08/27 01:04:42;;;;;;;2.75;1.00;;;16.10;99.90;;;;;;5109543;28;20048;-89
2022/08/27 01:07:08;;;;;;;5.30;1.35;;;16.00;99.90;;;;;;5110158;28;20528;-89
2022/08/27 01:09:35;;;;;;;8.02;1.05;;;16.00;99.90;;;;;;5092273;28;20035;-88
2022/08/27 01:12:02;;;;;;;6.10;1.15;;;16.30;99.90;;;;;;5076839;28;20138;-90
2022/08/27 01:14:28;;;;;;;3.63;1.40;;;16.00;99.90;;;;;;5109510;28;20075;-89
2022/08/27 01:16:56;;;;;;;3.63;1.02;;;16.00;99.90;;;;;;5075718;28;20139;-89
2022/08/27 01:19:37;;;;;;;10.07;1.67;;;16.00;99.90;;;;;;5109731;28;20118;-88
2022/08/27 01:22:23;;;;;;;6.47;1.20;;;16.00;99.90;;;;;;5109930;28;20050;-88
2022/08/27 01:24:50;;;;;;;4.47;0.98;;;16.00;99.90;;;;;;5110225;28;20035;-88
2022/08/27 01:27:19;;;;;;;5.88;1.38;;;16.30;99.90;;;;;;5109394;28;20071;-89
2022/08/27 01:29:45;;;;;;;5.50;1.23;;;15.90;99.90;;;;;;5109583;28;20410;-89
2022/08/27 01:32:15;;;;;;;2.97;0.93;;;15.90;99.90;;;;;;5109494;28;20051;-88
2022/08/27 01:34:41;;;;;;;3.08;1.00;;;15.80;99.90;;;;;;5109242;28;20587;-88
2022/08/27 01:37:07;;;;;;;6.13;1.38;;;15.80;99.90;;;;;;5092467;28;20035;-89
2022/08/27 01:39:35;;;;;;;6.53;1.35;;;16.00;99.90;;;;;;5092224;28;20421;-89
2022/08/27 01:42:04;;;;;;;3.63;1.00;;;15.70;99.90;;;;;;5109574;28;20055;-89
2022/08/27 01:44:50;;;;;;;5.18;1.70;;;15.60;99.90;;;;;;5092478;28;20046;-88
2022/08/27 01:47:18;;;;;;;4.70;2.25;;;15.60;99.90;;;;;;5109184;28;20046;-89
2022/08/27 01:49:44;;;;;;;3.40;1.10;;;15.50;99.90;;;;;;5093006;28;20043;-88
2022/08/27 01:52:10;;;;;;;3.28;1.33;;;15.50;99.90;;;;;;5074692;28;20542;-89
2022/08/27 01:54:36;;;;;;;5.10;1.05;;;15.40;99.90;;;;;;5109176;28;20035;-89
2022/08/27 01:57:03;;;;;;;4.40;1.20;;;15.30;99.90;;;;;;5091856;28;20044;-89
2022/08/27 01:59:29;;;;;;;5.43;1.15;;;16.20;99.90;;;;;;5109264;28;20047;-89
2022/08/27 02:01:55;;;;;;;5.78;1.15;;;15.40;99.90;;;;;;5074828;28;20048;-88
2022/08/27 02:04:22;;;;;;;2.35;1.27;;;15.40;99.90;;;;;;5108962;28;20043;-88
2022/08/27 02:06:47;;;;;;;5.93;1.02;;;15.30;99.90;;;;;;5108993;28;20122;-89
2022/08/27 02:09:13;;;;;;;4.57;0.82;;;15.30;99.90;;;;;;5108689;28;20071;-89
2022/08/27 02:11:39;;;;;;;4.90;1.35;;;15.30;99.90;;;;;;5092402;28;20040;-88
2022/08/27 02:14:05;;;;;;;5.25;1.00;;;15.30;99.90;;;;;;5091552;28;20597;-88
2022/08/27 02:16:31;;;;;;;5.57;1.35;;;15.20;99.90;;;;;;5091932;28;20039;-89
2022/08/27 02:18:58;;;;;;;5.57;1.10;;;15.70;99.90;;;;;;5075372;28;20085;-89
2022/08/27 02:21:24;;;;;;;4.70;2.13;;;15.20;99.90;;;;;;5108297;28;20043;-88
2022/08/27 02:23:50;;;;;;;5.88;1.08;;;15.20;99.90;;;;;;5108676;28;20094;-87
2022/08/27 02:26:16;;;;;;;7.03;1.15;;;15.20;99.90;;;;;;5091112;28;20040;-88
2022/08/27 02:28:42;;;;;;;4.43;1.13;;;15.20;99.90;;;;;;5108404;28;20517;-89
2022/08/27 02:31:09;;;;;;;3.63;0.90;;;15.30;99.90;;;;;;5090788;28;20073;-89
2022/08/27 02:33:35;;;;;;;7.82;1.17;;;15.10;99.90;;;;;;5074556;28;20134;-88
2022/08/27 02:36:01;;;;;;;3.30;1.17;;;15.30;99.90;;;;;;5074746;28;20079;-89
2022/08/27 02:38:26;;;;;;;4.47;1.15;;;15.00;99.90;;;;;;5091365;28;20390;-88
2022/08/27 02:40:52;;;;;;;4.25;1.45;;;15.00;99.90;;;;;;5091333;28;20490;-89
2022/08/27 02:43:17;;;;;;;8.05;1.55;;;14.90;99.90;;;;;;5074222;28;20035;-89
2022/08/27 02:45:43;;;;;;;7.70;1.10;;;14.90;99.90;;;;;;5091475;28;20073;-88
2022/08/27 02:48:10;;;;;;;5.57;1.10;;;15.70;99.90;;;;;;5107561;28;20080;-88
2022/08/27 02:50:36;;;;;;;6.03;1.15;;;14.80;99.90;;;;;;5091184;28;20087;-89
2022/08/27 02:53:02;;;;;;;5.93;1.45;;;14.90;99.90;;;;;;5108376;28;20082;-88
2022/08/27 02:55:28;;;;;;;6.22;1.17;;;13.80;99.90;;;;;;5108376;28;20047;-89
2022/08/27 02:57:54;;;;;;;7.15;1.27;;;14.80;99.90;;;;;;5091781;28;20475;-88
2022/08/27 03:00:22;;;;;;;3.85;1.15;;;14.70;99.90;;;;;;5090877;28;20487;-89
2022/08/27 03:02:49;;;;;;;3.97;1.40;;;14.70;99.90;;;;;;5074670;28;20049;-88
2022/08/27 03:05:16;;;;;;;6.18;1.25;;;14.70;99.90;;;;;;5108236;28;20040;-89
2022/08/27 03:07:42;;;;;;;8.30;1.00;;;14.60;99.90;;;;;;5108851;28;20394;-89
2022/08/27 03:10:12;;;;;;;4.78;1.25;;;14.60;99.90;;;;;;5091716;28;20161;-88
2022/08/27 03:12:38;;;;;;;5.93;2.03;;;14.60;99.90;;;;;;5093626;28;20401;-88
2022/08/27 03:15:07;;;;;;;12.43;1.73;;;14.50;99.90;;;;;;5110506;28;20057;-88
2022/08/27 03:20:17;;;;;;;5.07;1.30;;;15.40;99.90;;;;;;5119301;28;20036;-89
2022/08/27 03:22:44;;;;;;;3.45;1.25;;;14.50;99.90;;;;;;5117496;28;20092;-88
2022/08/27 03:25:10;;;;;;;5.05;1.48;;;14.50;99.90;;;;;;5066413;28;20046;-88
2022/08/27 03:27:37;;;;;;;7.60;1.48;;;14.50;99.90;;;;;;5110356;28;20055;-89
2022/08/27 03:30:05;;;;;;;2.15;1.25;;;15.50;99.90;;;;;;5107096;28;20205;-87
2022/08/27 03:32:31;;;;;;;2.72;0.90;;;14.50;99.90;;;;;;5107331;28;20047;-88
2022/08/27 03:34:57;;;;;;;4.40;1.45;;;14.60;99.90;;;;;;5107019;28;20039;-88
2022/08/27 03:37:23;;;;;;;8.05;1.58;;;14.50;99.90;;;;;;5090730;28;20489;-89
2022/08/27 03:39:49;;;;;;;5.10;1.40;;;14.50;99.90;;;;;;5106501;28;20508;-88
2022/08/27 03:42:16;;;;;;;5.78;1.23;;;14.50;99.90;;;;;;5090012;28;20075;-88
2022/08/27 03:44:42;;;;;;;6.88;1.25;;;14.90;99.90;;;;;;5107215;28;20140;-88
2022/08/27 03:47:07;;;;;;;9.20;1.20;;;14.50;99.90;;;;;;5106817;28;20089;-88
2022/08/27 03:49:33;;;;;;;5.55;1.33;;;15.10;99.90;;;;;;5090205;28;20044;-89
2022/08/27 03:51:59;;;;;;;4.57;2.25;;;14.50;99.90;;;;;;5089768;28;20044;-88
2022/08/27 03:54:25;;;;;;;5.57;1.23;;;15.20;99.90;;;;;;5089867;28;20039;-89
2022/08/27 03:56:51;;;;;;;5.65;1.55;;;14.50;99.90;;;;;;5090416;28;20460;-89
2022/08/27 03:59:17;;;;;;;3.92;1.10;;;14.50;99.90;;;;;;5108023;28;20079;-88
2022/08/27 04:01:44;;;;;;;6.43;1.50;;;14.50;99.90;;;;;;5108793;28;20440;-89
2022/08/27 04:04:09;;;;;;;6.63;1.40;;;14.50;99.90;;;;;;5090744;28;20347;-89
2022/08/27 04:06:35;;;;;;;2.22;0.88;;;14.50;99.90;;;;;;5074344;28;20423;-89
2022/08/27 04:09:02;;;;;;;2.90;1.23;;;14.40;99.90;;;;;;5089912;28;20044;-88
2022/08/27 04:11:28;;;;;;;3.45;1.42;;;14.40;99.90;;;;;;5107133;28;20044;-88
2022/08/27 04:13:55;;;;;;;4.30;1.35;;;15.30;99.90;;;;;;5089942;28;20185;-89
2022/08/27 04:16:20;;;;;;;3.20;1.35;;;14.30;99.90;;;;;;5089857;28;20048;-88
2022/08/27 04:18:46;;;;;;;3.03;1.00;;;14.20;99.90;;;;;;5106600;28;20066;-88
2022/08/27 04:21:14;;;;;;;12.82;1.33;;;14.20;99.90;;;;;;5073188;28;20058;-89
2022/08/27 04:23:41;;;;;;;2.42;0.63;;;14.10;99.90;;;;;;5107241;28;20051;-88
2022/08/27 04:26:09;;;;;;;3.30;1.08;;;14.10;99.90;;;;;;5055413;28;20536;-89
2022/08/27 04:28:37;;;;;;;5.70;1.40;;;14.80;99.90;;;;;;5055947;28;20063;-88
2022/08/27 04:31:03;;;;;;;8.68;1.63;;;15.10;99.90;;;;;;5072185;28;20414;-89
2022/08/27 04:33:31;;;;;;;3.63;1.25;;;14.00;99.90;;;;;;5072663;28;20040;-88
2022/08/27 04:36:03;;;;;;;3.17;1.08;;;13.90;99.90;;;;;;5072198;28;20088;-88
2022/08/27 04:38:29;;;;;;;4.57;1.20;;;13.90;99.90;;;;;;5072361;28;20050;-88
2022/08/27 04:43:39;;;;;;;9.18;0.93;;;13.90;99.90;;;;;;5072078;28;20537;-89
2022/08/27 04:46:05;;;;;;;6.43;1.40;;;13.90;99.90;;;;;;5072630;28;20131;-89
2022/08/27 04:48:31;;;;;;;2.20;0.85;;;14.00;99.90;;;;;;5072236;28;20567;-88
2022/08/27 04:50:57;;;;;;;3.00;1.02;;;14.10;99.90;;;;;;5072316;28;20048;-88
2022/08/27 04:53:26;;;;;;;3.08;1.05;;;14.10;99.90;;;;;;5089265;28;20052;-88
2022/08/27 04:55:55;;;;;;;8.65;1.90;;;14.30;99.90;;;;;;5055488;28;20047;-89
2022/08/27 04:58:22;;;;;;;7.05;1.23;;;14.20;99.90;;;;;;5093706;28;20493;-88
2022/08/27 05:00:51;;;;;;;1.63;1.00;;;14.40;99.90;;;;;;5110253;28;20124;-89
2022/08/27 05:03:19;;;;;;;4.05;1.25;;;14.30;99.90;;;;;;5110577;28;20067;-88
2022/08/27 05:05:48;;;;;;;6.32;1.05;;;14.40;99.90;;;;;;5093392;28;20097;-88
2022/08/27 05:08:14;;;;;;;6.47;1.20;;;14.50;99.90;;;;;;5076290;28;20086;-89
2022/08/27 05:10:41;;;;;;;6.25;1.00;;;14.50;99.90;;;;;;5110634;28;20075;-88
2022/08/27 05:13:07;;;;;;;5.28;1.33;;;14.60;99.90;;;;;;5092702;28;20039;-88
2022/08/27 05:15:34;;;;;;;4.57;1.23;;;14.70;99.90;;;;;;5093287;28;20054;-89
2022/08/27 05:18:01;;;;;;;4.93;1.02;;;15.80;99.90;;;;;;5092800;28;20389;-89
2022/08/27 05:20:28;;;;;;;3.60;1.10;;;14.90;99.90;;;;;;5110134;28;20563;-88
2022/08/27 05:22:54;;;;;;;3.05;1.00;;;14.90;99.90;;;;;;5076374;28;20185;-88
2022/08/27 05:25:21;;;;;;;4.70;1.35;;;15.00;99.90;;;;;;5092471;28;20044;-88
2022/08/27 05:27:47;;;;;;;5.32;0.88;;;15.30;99.90;;;;;;5076294;28;20053;-89
2022/08/27 05:30:12;;;;;;;5.97;1.15;;;15.20;99.90;;;;;;5092149;28;20052;-88
2022/08/27 05:32:38;;;;;;;4.75;1.48;;;15.30;99.90;;;;;;5092751;28;20043;-89
2022/08/27 05:35:05;;;;;;;5.60;1.40;;;15.30;99.90;;;;;;5075140;28;20042;-88
2022/08/27 05:37:32;;;;;;;4.28;0.93;;;15.50;99.90;;;;;;5109400;28;20093;-89
2022/08/27 05:40:03;;;;;;;4.63;1.02;;;15.50;99.90;;;;;;5092587;28;20052;-88
2022/08/27 05:42:30;;;;;;;5.70;1.05;;;15.60;99.90;;;;;;5109920;28;20059;-88
2022/08/27 05:44:58;;;;;;;7.22;1.30;;;15.70;99.90;;;;;;5092707;28;20046;-88
2022/08/27 05:47:24;;;;;;;11.80;1.30;;;15.70;99.90;;;;;;5092821;28;20101;-88
2022/08/27 05:49:54;;;;;;;2.05;1.05;;;15.90;99.90;;;;;;5109674;28;20044;-88
2022/08/27 05:52:22;;;;;;;5.00;1.35;;;16.00;99.90;;;;;;5109036;28;20134;-89
2022/08/27 05:54:50;;;;;;;9.40;1.50;;;17.00;99.90;;;;;;5093097;28;20501;-90
2022/08/27 05:57:15;;;;;;;7.00;1.05;;;16.10;99.90;;;;;;5109850;28;20256;-89
2022/08/27 06:02:27;;;;;;;3.80;0.95;;;16.20;99.90;;;;;;5100132;28;20044;-88
2022/08/27 06:04:52;;;;;;;4.60;1.20;;;17.10;99.90;;;;;;5080633;28;20513;-89
2022/08/27 06:07:18;;;;;;;3.70;1.45;;;16.30;99.90;;;;;;5097055;28;20136;-89
2022/08/27 06:09:44;;;;;;;3.60;1.10;;;16.40;99.90;;;;;;5096480;28;20047;-89
2022/08/27 06:12:09;;;;;;;7.30;1.52;;;16.40;99.90;;;;;;5079583;28;20536;-88
2022/08/27 06:14:36;;;;;;;5.97;1.40;;;16.50;99.90;;;;;;5062498;28;20090;-89
2022/08/27 06:17:02;;;;;;;4.82;1.20;;;16.60;99.90;;;;;;5094850;28;20085;-89
2022/08/27 06:19:28;;;;;;;1.60;0.98;;;16.70;99.90;;;;;;5095775;28;20094;-89
2022/08/27 06:21:57;;;;;;;5.53;0.82;;;16.80;99.90;;;;;;5110306;28;20502;-89
2022/08/27 06:24:23;;;;;;;4.35;0.90;;;16.90;99.90;;;;;;5093554;28;20047;-89
2022/08/27 06:26:49;;;;;;;7.43;1.77;;;17.00;99.90;;;;;;5094813;28;20448;-89
2022/08/27 06:29:14;;;;;;;6.70;1.17;;;17.00;99.90;;;;;;5077151;28;20118;-89
2022/08/27 06:31:41;;;;;;;6.15;1.15;;;17.10;99.90;;;;;;5076755;28;20040;-89
2022/08/27 06:34:09;;;;;;;6.80;1.00;;;17.20;99.90;;;;;;5093180;28;20040;-89
2022/08/27 06:36:37;;;;;;;9.13;1.65;;;17.30;99.90;;;;;;5113252;28;20051;-89
2022/08/27 06:39:04;;;;;;;6.28;1.45;;;17.30;99.90;;;;;;5083474;28;20039;-89
2022/08/27 06:41:29;;;;;;;12.60;1.55;;;17.40;99.90;;;;;;5118876;28;20044;-89
2022/08/27 06:43:57;;;;;;;4.05;1.92;;;17.50;99.90;;;;;;5098475;28;20039;-89
2022/08/27 06:46:25;;;;;;;4.40;1.35;;;17.60;99.90;;;;;;5110531;28;20047;-89
2022/08/27 06:48:59;;;;;;;3.90;1.00;;;17.80;99.90;;;;;;5093033;28;20130;-89
2022/08/27 06:51:28;;;;;;;4.50;0.95;;;17.90;99.90;;;;;;5092539;28;20079;-89
2022/08/27 06:53:56;;;;;;;4.32;1.00;;;18.10;99.90;;;;;;5091719;28;20039;-89
2022/08/27 06:56:23;;;;;;;6.47;1.38;;;18.20;99.90;;;;;;5091528;28;20044;-88
2022/08/27 06:58:56;;;;;;;6.75;1.20;;;18.40;99.90;;;;;;5091701;28;20031;-88
2022/08/27 07:01:31;;;;;;;8.30;1.10;;;18.50;99.90;;;;;;5091162;28;20138;-89
2022/08/27 07:03:59;;;;;;;8.07;1.20;;;18.60;99.90;;;;;;5108475;28;20130;-88
2022/08/27 07:06:26;;;;;;;7.88;1.55;;;18.80;99.90;;;;;;5107802;28;20039;-89
2022/08/27 07:08:52;;;;;;;7.95;2.20;;;19.00;99.90;;;;;;5074585;28;20349;-89
2022/08/27 07:11:18;;;;;;;4.20;1.00;;;19.10;99.90;;;;;;5091256;28;20055;-89
2022/08/27 07:13:46;;;;;;;11.65;2.17;;;19.30;99.90;;;;;;5091288;28;20043;-88
2022/08/27 07:16:14;;;;;;;7.25;1.17;;;19.40;99.90;;;;;;5091539;28;20367;-89
2022/08/27 07:18:40;;;;;;;5.03;0.65;;;19.40;99.90;;;;;;5091396;28;20046;-89
2022/08/27 07:21:07;;;;;;;5.90;1.13;;;19.40;99.90;;;;;;5090855;28;20047;-89
2022/08/27 07:23:35;;;;;;;6.90;0.88;;;19.30;99.90;;;;;;5091424;28;20099;-89
2022/08/27 07:26:09;;;;;;;6.45;2.03;;;19.30;99.90;;;;;;5091233;28;20035;-88
2022/08/27 07:28:36;;;;;;;8.05;1.17;;;19.30;99.90;;;;;;5091245;28;20050;-89
2022/08/27 07:31:04;;;;;;;6.75;2.75;;;19.30;99.90;;;;;;5090725;28;20051;-89
2022/08/27 07:33:31;;;;;;;7.95;1.35;;;19.30;99.90;;;;;;5090892;28;20042;-88
2022/08/27 07:35:56;;;;;;;7.55;1.48;;;19.40;99.90;;;;;;5074513;28;20040;-89
2022/08/27 07:38:22;;;;;;;7.30;0.77;;;19.40;99.90;;;;;;5090986;28;20501;-88
2022/08/27 07:40:48;;;;;;;3.30;0.80;;;19.40;99.90;;;;;;5107800;28;20059;-89
2022/08/27 07:46:01;;;;;;;13.52;1.88;;;19.40;99.90;;;;;;5109214;28;20049;-88
2022/08/27 07:48:28;;;;;;;4.78;0.75;;;19.40;99.90;;;;;;5078923;28;20036;-88
2022/08/27 07:50:54;;;;;;;4.55;0.85;;;19.50;99.90;;;;;;5079835;28;20447;-88
2022/08/27 07:53:20;;;;;;;4.68;1.10;;;19.40;99.90;;;;;;5080171;28;20086;-89
2022/08/27 07:55:46;;;;;;;6.28;1.08;;;19.50;99.90;;;;;;5079355;28;20082;-88
2022/08/27 07:58:12;;;;;;;7.32;1.05;;;19.50;99.90;;;;;;5078637;28;20132;-88
2022/08/27 08:00:44;;;;;;;4.15;0.98;;;19.50;99.90;;;;;;5095513;28;20054;-89
2022/08/27 08:03:11;;;;;;;4.00;0.90;;;19.50;99.90;;;;;;5096705;28;20051;-89
2022/08/27 08:05:43;;;;;;;6.70;1.05;;;19.50;99.90;;;;;;5078963;28;20039;-89
2022/08/27 08:08:10;;;;;;;9.18;1.17;;;19.60;99.90;;;;;;5096331;28;20067;-88
2022/08/27 08:10:38;;;;;;;3.95;0.60;;;20.70;99.90;;;;;;5097257;28;20093;-88
2022/08/27 08:13:04;;;;;;;7.95;1.20;;;19.70;99.90;;;;;;5097199;28;20051;-88
2022/08/27 08:15:30;;;;;;;5.35;0.70;;;19.70;99.90;;;;;;5101286;28;20044;-88
2022/08/27 08:17:57;;;;;;;5.10;1.20;;;19.70;99.90;;;;;;5087287;28;20173;-88
2022/08/27 08:20:23;;;;;;;9.02;0.93;;;19.80;99.90;;;;;;5073920;28;20067;-88
2022/08/27 08:22:51;;;;;;;12.10;7.43;;;19.80;99.90;;;;;;5090284;28;20044;-88
2022/08/27 08:25:17;;;;;;;9.43;2.17;;;19.90;99.90;;;;;;5117506;28;20490;-88
2022/08/27 08:27:44;;;;;;;12.95;1.85;;;19.90;99.90;;;;;;5115708;28;20055;-88
2022/08/27 08:30:10;;;;;;;6.53;1.15;;;20.00;99.90;;;;;;5115509;28;20052;-89
2022/08/27 08:32:37;;;;;;;3.25;0.68;;;20.00;99.90;;;;;;5097538;28;20076;-89
2022/08/27 08:35:04;;;;;;;3.42;0.80;;;20.00;99.90;;;;;;5113796;28;20125;-88
2022/08/27 08:37:31;;;;;;;12.02;1.20;;;19.90;99.90;;;;;;5116317;28;20040;-89
2022/08/27 08:39:57;;;;;;;4.63;0.85;;;20.00;99.90;;;;;;5098786;28;20043;-89
2022/08/27 08:42:50;;;;;;;8.23;0.80;;;20.00;99.90;;;;;;5080710;28;20093;-89
2022/08/27 08:45:22;;;;;;;9.48;1.30;;;20.00;99.90;;;;;;5097521;28;20054;-88
2022/08/27 08:47:55;;;;;;;6.03;0.95;;;20.20;99.90;;;;;;5113775;28;20064;-90
2022/08/27 08:50:54;;;;;;;3.88;0.65;;;20.40;99.90;;;;;;5113952;28;20073;-89
2022/08/27 08:53:56;;;;;;;2.80;0.73;;;20.70;99.90;;;;;;5092983;28;20134;-88
2022/08/27 08:56:41;;;;;;;6.80;0.90;;;20.90;99.90;;;;;;5096620;28;20040;-88
2022/08/27 08:59:33;;;;;;;5.88;1.08;;;21.20;99.90;;;;;;5096865;28;20140;-89
2022/08/27 09:01:59;;;;;;;4.75;1.15;;;21.40;99.90;;;;;;5095805;28;20039;-89
2022/08/27 09:04:28;;;;;;;3.70;0.88;;;21.60;99.90;;;;;;5098078;28;20036;-87
2022/08/27 09:07:08;;;;;;;7.30;1.00;;;21.50;99.90;;;;;;5095401;28;20062;-88
2022/08/27 09:10:01;;;;;;;7.53;2.75;;;21.40;99.90;;;;;;5096802;28;20039;-88
2022/08/27 09:12:31;;;;;;;3.40;1.10;;;21.30;99.90;;;;;;5093279;28;20459;-89
2022/08/27 09:15:17;;;;;;;5.97;0.82;;;21.10;99.90;;;;;;5093167;28;20054;-87
2022/08/27 09:17:46;;;;;;;3.15;0.77;;;21.00;99.90;;;;;;5094628;28;20080;-88
2022/08/27 09:20:13;;;;;;;6.45;0.90;;;20.90;99.90;;;;;;5092752;28;20532;-89
2022/08/27 09:23:12;;;;;;;8.30;0.88;;;21.00;99.90;;;;;;5110564;28;20051;-88
2022/08/27 09:25:41;;;;;;;7.13;1.45;;;20.90;99.90;;;;;;5093548;28;20043;-88
2022/08/27 09:29:14;;;;;;;5.93;1.20;;;20.90;99.90;;;;;;5093243;28;20044;-88
2022/08/27 09:31:10;;;;;;;5.90;0.60;;;20.90;99.90;;;;;;5113954;28;20486;-89
2022/08/27 09:33:36;;;;;;;8.98;0.75;;;20.90;99.90;;;;;;5113280;28;20083;-89
2022/08/27 09:36:08;;;;;;;5.28;1.40;;;20.80;99.90;;;;;;5079331;28;20028;-88
2022/08/27 09:38:35;;;;;;;7.60;1.15;;;20.80;99.90;;;;;;5094280;28;20046;-88
2022/08/27 09:41:08;;;;;;;4.97;0.73;;;20.80;99.90;;;;;;5093220;28;20055;-89
2022/08/27 09:43:35;;;;;;;9.70;0.82;;;20.80;99.90;;;;;;5094825;28;20436;-88
2022/08/27 09:46:19;;;;;;;9.70;0.98;;;20.70;99.90;;;;;;5109512;28;20100;-87
2022/08/27 09:48:44;;;;;;;9.70;1.13;;;20.70;99.90;;;;;;5094434;28;20112;-88
2022/08/27 09:51:15;;;;;;;3.72;0.70;;;20.60;99.90;;;;;;5083030;28;20098;-87
2022/08/27 09:53:49;;;;;;;6.22;1.40;;;20.60;99.90;;;;;;5103461;28;20044;-89
2022/08/27 09:56:33;;;;;;;4.95;1.33;;;20.60;99.90;;;;;;5105261;28;20047;-90
2022/08/27 09:59:06;;;;;;;5.40;0.77;;;20.60;99.90;;;;;;5104231;28;20039;-88
2022/08/27 10:01:35;;;;;;;7.95;1.05;;;20.60;99.90;;;;;;5120837;28;20048;-88
2022/08/27 10:04:09;;;;;;;7.75;1.30;;;20.60;99.90;;;;;;5100687;28;20033;-88
2022/08/27 10:06:36;;;;;;;3.65;0.60;;;20.60;99.90;;;;;;5117568;28;20071;-89
2022/08/27 10:09:15;;;;;;;4.28;0.65;;;20.60;99.90;;;;;;5099859;28;20097;-88
2022/08/27 10:11:57;;;;;;;4.85;0.80;;;20.60;99.90;;;;;;5117069;28;20040;-88
2022/08/27 10:14:30;;;;;;;4.97;0.60;;;20.60;99.90;;;;;;5096422;28;20410;-88
2022/08/27 10:17:23;;;;;;;4.97;0.70;;;20.60;99.90;;;;;;5094670;28;20039;-88
2022/08/27 10:20:17;;;;;;;4.18;0.80;;;20.80;99.90;;;;;;5091976;28;20138;-88
2022/08/27 10:23:25;;;;;;;3.65;0.82;;;20.80;99.90;;;;;;5092202;28;20092;-89
2022/08/27 10:26:15;;;;;;;4.07;0.75;;;21.00;99.90;;;;;;5084649;28;20048;-90
2022/08/27 10:29:03;;;;;;;2.25;0.60;;;21.40;99.90;;;;;;5091542;28;20039;-88
2022/08/27 10:31:41;;;;;;;6.05;1.77;;;21.80;99.90;;;;;;5092438;28;20132;-88
2022/08/27 10:34:19;;;;;;;4.75;0.80;;;21.30;99.90;;;;;;5091874;28;20040;-89
2022/08/27 10:36:50;;;;;;;6.65;1.17;;;22.40;99.90;;;;;;5091525;28;20218;-89
2022/08/27 10:39:30;;;;;;;4.75;1.23;;;22.40;99.90;;;;;;5110327;28;20359;-89
2022/08/27 10:42:15;;;;;;;7.72;0.80;;;22.30;99.90;;;;;;5091021;28;20064;-89
2022/08/27 10:45:10;;;;;;;3.25;0.85;;;22.50;99.90;;;;;;5091450;28;20044;-89
2022/08/27 10:48:00;;;;;;;6.45;0.98;;;22.90;99.90;;;;;;5103353;28;20521;-88
2022/08/27 10:50:53;;;;;;;5.25;0.80;;;23.00;99.90;;;;;;5090546;28;20048;-90
2022/08/27 10:53:40;;;;;;;2.75;1.17;;;22.80;99.90;;;;;;5102740;28;20423;-87
2022/08/27 10:56:10;;;;;;;5.30;0.88;;;22.60;99.90;;;;;;5092381;28;20047;-88
2022/08/27 10:58:59;;;;;;;6.47;0.90;;;22.40;99.90;;;;;;5090547;28;20128;-90
2022/08/27 11:01:53;;;;;;;3.97;0.68;;;22.30;99.90;;;;;;5091712;28;20098;-88
2022/08/27 11:04:25;;;;;;;5.60;0.63;;;22.30;99.90;;;;;;5108854;28;20131;-89
2022/08/27 11:07:04;;;;;;;9.63;1.02;;;22.70;99.90;;;;;;5091049;28;20043;-89
2022/08/27 11:09:39;;;;;;;2.70;0.60;;;23.10;99.90;;;;;;5091769;28;20082;-89
2022/08/27 11:12:08;;;;;;;5.20;0.98;;;23.40;99.90;;;;;;5091526;28;20039;-88
2022/08/27 11:14:56;;;;;;;3.13;0.65;;;23.30;99.90;;;;;;5091581;28;20032;-88
2022/08/27 11:17:39;;;;;;;5.35;0.98;;;23.10;99.90;;;;;;5091849;28;20581;-89
2022/08/27 11:20:20;;;;;;;3.90;0.52;;;22.90;99.90;;;;;;5107845;28;20043;-89
2022/08/27 11:22:54;;;;;;;2.85;0.90;;;22.80;99.90;;;;;;5108990;28;20120;-89
2022/08/27 11:25:29;;;;;;;2.08;0.50;;;22.90;99.90;;;;;;5090931;28;20088;-89
2022/08/27 11:27:57;;;;;;;3.85;0.85;;;23.10;99.90;;;;;;5091251;28;20596;-90
2022/08/27 11:30:42;;;;;;;3.67;0.65;;;23.50;99.90;;;;;;5092291;28;20405;-87
2022/08/27 11:33:37;;;;;;;4.47;0.63;;;23.70;99.60;;;;;;5092024;28;20047;-90
2022/08/27 11:36:30;;;;;;;6.60;0.77;;;23.50;98.60;;;;;;5110898;28;20051;-89
2022/08/27 11:39:22;;;;;;;4.30;0.60;;;23.30;99.40;;;;;;5109504;28;20539;-88
2022/08/27 11:41:59;;;;;;;5.18;0.57;;;23.10;99.90;;;;;;5094628;28;20062;-90
2022/08/27 11:44:26;;;;;;;5.50;0.90;;;23.00;99.90;;;;;;5095468;28;20046;-89
2022/08/27 11:47:08;;;;;;;7.43;0.90;;;22.90;99.90;;;;;;5096751;28;20134;-89
2022/08/27 11:49:54;;;;;;;3.88;0.60;;;22.80;99.90;;;;;;5091770;28;20039;-89
2022/08/27 11:52:34;;;;;;;1.33;0.45;;;22.90;99.90;;;;;;5109156;28;20048;-89
2022/08/27 11:55:18;;;;;;;3.55;0.82;;;23.30;99.90;;;;;;5107584;28;20051;-88
2022/08/27 11:57:46;;;;;;;4.50;0.65;;;23.30;99.60;;;;;;5090776;28;20054;-90
2022/08/27 12:00:25;;;;;;;3.97;0.52;;;23.20;99.90;;;;;;5090813;28;20043;-89
2022/08/27 12:03:03;;;;;;;4.13;0.80;;;23.20;99.90;;;;;;5089614;28;20043;-89
2022/08/27 12:05:42;;;;;;;3.75;0.85;;;23.00;98.90;;;;;;5091046;28;20047;-89
2022/08/27 12:08:30;;;;;;;4.88;0.70;;;23.10;99.40;;;;;;5107060;28;20043;-89
2022/08/27 12:11:20;;;;;;;3.67;0.63;;;23.30;99.00;;;;;;5090001;28;20039;-88
2022/08/27 12:14:23;;;;;;;3.90;0.52;;;23.40;99.20;;;;;;5091156;28;20048;-89
2022/08/27 12:16:56;;;;;;;3.88;0.40;;;23.30;97.90;;;;;;5106939;28;20062;-88
2022/08/27 12:19:25;;;;;;;4.88;0.85;;;23.10;99.10;;;;;;5106803;28;20043;-88
2022/08/27 12:21:59;;;;;;;5.25;0.80;;;23.00;99.70;;;;;;5090536;28;20050;-89
2022/08/27 12:24:48;;;;;;;5.40;0.85;;;23.20;99.90;;;;;;5105947;28;20044;-88
2022/08/27 12:27:30;;;;;;;4.28;0.88;;;23.40;99.50;;;;;;5090819;28;20064;-89
2022/08/27 12:30:26;;;;;;;3.67;0.90;;;23.60;98.30;;;;;;5090068;28;20051;-88
2022/08/27 12:32:54;;;;;;;2.20;0.52;;;23.60;97.70;;;;;;5089246;28;20047;-89
2022/08/27 12:35:56;;;;;;;3.90;0.52;;;23.50;99.00;;;;;;5090759;28;20043;-89
2022/08/27 12:38:37;;;;;;;2.53;0.52;;;23.50;98.60;;;;;;5031459;28;20119;-89
2022/08/27 12:41:07;;;;;;;4.28;0.60;;;23.70;97.80;;;;;;5085097;28;20058;-90
2022/08/27 12:43:34;;;;;;;2.65;0.50;;;23.80;98.60;;;;;;5074642;28;20123;-89
2022/08/27 12:46:02;;;;;;;3.80;0.70;;;23.90;97.60;;;;;;5091466;28;20051;-88
2022/08/27 12:48:32;;;;;;;1.33;0.50;;;24.00;97.10;;;;;;5111408;28;20043;-88
2022/08/27 12:51:11;;;;;;;1.95;0.40;;;24.30;97.30;;;;;;5093075;28;20048;-89
2022/08/27 12:54:09;;;;;;;4.63;0.60;;;24.50;96.70;;;;;;5093722;28;20521;-88
2022/08/27 12:56:41;;;;;;;2.45;0.60;;;24.40;95.40;;;;;;5111873;28;20443;-89
2022/08/27 12:59:28;;;;;;;3.22;1.08;;;24.10;97.40;;;;;;5110083;28;20510;-90
2022/08/27 13:02:05;;;;;;;1.75;0.50;;;23.90;98.00;;;;;;5093688;28;20043;-89
2022/08/27 13:04:36;;;;;;;3.53;0.82;;;23.80;98.10;;;;;;5094038;28;20135;-89
2022/08/27 13:07:01;;;;;;;2.30;0.45;;;23.70;98.70;;;;;;5093178;28;20126;-88
2022/08/27 13:09:30;;;;;;;4.38;0.90;;;23.60;98.50;;;;;;5094109;28;20135;-88
2022/08/27 13:11:58;;;;;;;2.85;0.40;;;23.40;98.10;;;;;;5093034;28;20446;-88
2022/08/27 13:14:27;;;;;;;5.20;0.60;;;23.20;98.70;;;;;;5061155;28;20036;-88
2022/08/27 13:16:56;;;;;;;4.57;0.98;;;23.00;98.60;;;;;;5093003;28;20537;-89
2022/08/27 13:19:34;;;;;;;3.95;0.70;;;22.90;98.60;;;;;;5094520;28;20036;-89